Time;durP1;ratioP1;P1;durP2;ratioP2;P2;SDS_P1;SDS_P2;PMS_P1;PMS_P2;Temp;Humidity;BMP_temperature;BMP_pressure;BME280_temperature;BME280_humidity;BME280_pressure;Samples;Min_cycle;Max_cycle;Signal;HPM_P1;HPM_P2
2023/01/19 00:01:25;;;;;;;;;;;;;;;-144.99;98.95;52588.75;5023249;28;19933;-66
2023/01/19 00:03:53;;;;;;;;;;;;;;;-144.99;98.46;52627.47;5027670;28;20027;-67
2023/01/19 00:06:19;;;;;;;;;;;;;;;-144.99;98.54;52574.47;5029030;28;19982;-66
2023/01/19 00:08:48;;;;;;;;;;;;;;;-144.99;97.36;52574.47;5029269;28;19979;-66
2023/01/19 00:11:16;;;;;;;;;;;;;;;-144.99;97.02;52558.16;5028710;28;20441;-69
2023/01/19 00:13:48;;;;;;;;;;;;;;;-144.99;95.67;52598.94;5028216;28;19929;-66
2023/01/19 00:16:16;;;;;;;;;;;;;;;-144.99;95.37;52586.69;5028964;28;19932;-66
2023/01/19 00:18:42;;;;;;;;;;;;;;;-144.99;94.76;52562.25;5023136;28;19925;-64
2023/01/19 00:21:10;;;;;;;;;;;;;;;-144.99;93.41;52615.25;5028474;28;19960;-67
2023/01/19 00:23:41;;;;;;;;;;;;;;;-144.99;94.20;52570.38;4805256;28;9999673;-67
2023/01/19 00:26:09;;;;;;;;;;;;;;;-144.99;93.89;52598.94;5027120;28;20070;-66
2023/01/19 00:28:35;;;;;;;;;;;;;;;-144.99;93.31;52651.94;5028795;28;19935;-66
2023/01/19 00:31:02;;;;;;;;;;;;;;;-144.99;93.71;52615.25;5029355;28;19987;-66
2023/01/19 00:33:28;;;;;;;;;;;;;;;-144.99;93.29;52607.09;5036543;28;20369;-67
2023/01/19 00:35:55;;;;;;;;;;;;;;;-144.99;93.08;52570.38;5064204;22;19949;-71
2023/01/19 00:38:23;;;;;;;;;;;;;;;-144.99;93.19;52545.94;5065631;28;19933;-72
2023/01/19 00:40:49;;;;;;;;;;;;;;;-144.99;92.68;52578.53;5065314;28;19913;-73
2023/01/19 00:43:16;;;;;;;;;;;;;;;-144.99;92.17;52603.00;5060604;28;19947;-73
2023/01/19 00:45:43;;;;;;;;;;;;;;;-144.99;92.35;52635.63;5062714;28;19925;-71
2023/01/19 00:48:09;;;;;;;;;;;;;;;-144.99;92.36;52576.50;5044962;28;20203;-68
2023/01/19 00:50:36;;;;;;;;;;;;;;;-144.99;91.58;52578.53;5032907;28;19984;-71
2023/01/19 00:53:02;;;;;;;;;;;;;;;-144.99;91.79;52598.94;5039330;28;20391;-72
2023/01/19 00:55:31;;;;;;;;;;;;;;;-144.99;91.64;52603.00;5044025;28;19925;-72
2023/01/19 00:57:57;;;;;;;;;;;;;;;-144.99;91.60;52574.47;5045599;28;19944;-72
2023/01/19 01:00:24;;;;;;;;;;;;;;;-144.99;91.39;52584.66;5032741;28;19925;-72
2023/01/19 01:02:52;;;;;;;;;;;;;;;-144.99;91.73;52572.44;5042646;28;19917;-72
2023/01/19 01:05:19;;;;;;;;;;;;;;;-144.99;91.03;52619.31;5060371;28;19917;-73
2023/01/19 01:07:48;;;;;;;;;;;;;;;-144.99;91.64;52598.94;5057139;28;20069;-72
2023/01/19 01:10:16;;;;;;;;;;;;;;;-144.99;91.43;52609.13;5063036;28;19973;-72
2023/01/19 01:12:44;;;;;;;;;;;;;;;-144.99;90.49;52570.38;5067392;28;19935;-72
2023/01/19 01:15:11;;;;;;;;;;;;;;;-144.99;90.15;52582.63;5059085;28;19959;-72
2023/01/19 01:17:45;;;;;;;;;;;;;;;-144.99;90.42;52586.69;5062041;28;19967;-72
2023/01/19 01:20:15;;;;;;;;;;;;;;;-144.99;90.20;52582.63;5056581;28;19925;-73
2023/01/19 01:22:44;;;;;;;;;;;;;;;-144.99;89.62;52623.38;5054126;28;19968;-73
2023/01/19 01:25:10;;;;;;;;;;;;;;;-144.99;88.81;52572.44;5046335;28;19933;-73
2023/01/19 01:27:37;;;;;;;;;;;;;;;-144.99;88.46;52574.47;5043819;28;19924;-73
2023/01/19 01:30:06;;;;;;;;;;;;;;;-144.99;88.67;52566.31;5045496;28;19981;-74
2023/01/19 01:32:32;;;;;;;;;;;;;;;-144.99;88.61;52615.25;5065012;28;19937;-75
2023/01/19 01:34:59;;;;;;;;;;;;;;;-144.99;88.53;52578.53;5055580;28;19925;-74
2023/01/19 01:37:25;;;;;;;;;;;;;;;-144.99;88.48;52558.16;5047354;28;19928;-73
2023/01/19 01:39:52;;;;;;;;;;;;;;;-144.99;88.39;52578.53;5039355;28;19929;-70
2023/01/19 01:42:20;;;;;;;;;;;;;;;-144.99;88.53;52605.03;5041298;28;19998;-69
2023/01/19 01:44:51;;;;;;;;;;;;;;;-144.99;88.48;52582.63;5034131;28;19964;-69
2023/01/19 01:47:23;;;;;;;;;;;;;;;-144.99;89.35;52594.84;5037713;28;19982;-69
2023/01/19 01:49:51;;;;;;;;;;;;;;;-144.99;89.18;52566.31;5043733;28;20043;-69
2023/01/19 01:52:17;;;;;;;;;;;;;;;-144.99;88.47;52594.84;5043061;28;19951;-69
2023/01/19 01:54:44;;;;;;;;;;;;;;;-144.99;89.05;52566.31;5044093;28;19924;-69
2023/01/19 01:57:12;;;;;;;;;;;;;;;-144.99;89.78;52554.09;5033128;28;19925;-69
2023/01/19 01:59:40;;;;;;;;;;;;;;;-144.99;89.61;52588.75;5040387;28;19998;-70
2023/01/19 02:04:57;;;;;;;;;;;;;;;-144.99;88.39;52609.13;5025749;28;20290;-71
2023/01/19 02:15:38;;;;;;;;;;;;;;;-144.99;89.90;52574.47;5034846;28;20393;-71
2023/01/19 02:18:04;;;;;;;;;;;;;;;-144.99;89.98;52623.38;5039268;28;19929;-71
2023/01/19 02:20:36;;;;;;;;;;;;;;;-144.99;90.35;52605.03;5032891;28;20336;-71
2023/01/19 02:23:05;;;;;;;;;;;;;;;-144.99;89.25;52607.09;5025921;28;19925;-71
2023/01/19 02:25:33;;;;;;;;;;;;;;;-144.99;88.81;52564.28;5045210;28;19932;-71
2023/01/19 02:28:00;;;;;;;;;;;;;;;-144.99;88.90;52582.63;5037201;28;19979;-72
2023/01/19 02:30:27;;;;;;;;;;;;;;;-144.99;89.44;52566.31;5041132;28;19925;-70
2023/01/19 02:32:54;;;;;;;;;;;;;;;-144.99;89.44;52598.94;5034839;28;19929;-70
2023/01/19 02:35:21;;;;;;;;;;;;;;;-144.99;89.30;52586.69;5035288;28;19924;-72
2023/01/19 02:37:48;;;;;;;;;;;;;;;-144.99;88.99;52533.69;5033276;28;19936;-73
2023/01/19 02:40:18;;;;;;;;;;;;;;;-144.99;89.75;52566.31;5048262;28;19924;-72
2023/01/19 02:42:48;;;;;;;;;;;;;;;-144.99;89.82;52574.47;5041658;28;19925;-72
2023/01/19 02:45:18;;;;;;;;;;;;;;;-144.99;90.26;52562.25;5044737;28;19927;-72
2023/01/19 02:47:45;;;;;;;;;;;;;;;-144.99;90.41;52619.31;5045025;28;19916;-71
2023/01/19 02:50:36;;;;;;;;;;;;;;;-144.99;90.48;52603.00;5064440;28;19932;-72
2023/01/19 02:53:10;;;;;;;;;;;;;;;-144.99;90.53;52611.16;5025727;28;19979;-72
2023/01/19 02:55:37;;;;;;;;;;;;;;;-144.99;90.62;52574.47;5045586;28;19929;-72
2023/01/19 02:58:11;;;;;;;;;;;;;;;-144.99;90.32;52600.97;5024166;28;19925;-74
2023/01/19 03:00:44;;;;;;;;;;;;;;;-144.99;90.78;52588.75;5032092;28;19979;-75
2023/01/19 03:03:20;;;;;;;;;;;;;;;-144.99;89.74;52582.63;5028285;28;20390;-73
2023/01/19 03:05:52;;;;;;;;;;;;;;;-144.99;90.05;52574.47;5039726;28;20377;-74
2023/01/19 03:08:23;;;;;;;;;;;;;;;-144.99;90.34;52560.19;5037116;28;19998;-74
2023/01/19 03:10:55;;;;;;;;;;;;;;;-144.99;90.37;52566.31;5042190;28;20455;-73
2023/01/19 03:13:29;;;;;;;;;;;;;;;-144.99;90.30;52562.25;5034058;28;19925;-72
2023/01/19 03:16:00;;;;;;;;;;;;;;;-144.99;90.84;52582.63;5020422;28;19932;-72
2023/01/19 03:18:27;;;;;;;;;;;;;;;-144.99;90.75;52603.00;5035233;28;20362;-71
2023/01/19 03:20:55;;;;;;;;;;;;;;;-144.99;89.86;52562.25;5038751;28;19925;-72
2023/01/19 03:23:24;;;;;;;;;;;;;;;-144.99;89.56;52574.47;5047856;28;19933;-74
2023/01/19 03:25:53;;;;;;;;;;;;;;;-144.99;89.42;52558.16;5038500;28;19925;-73
2023/01/19 03:28:20;;;;;;;;;;;;;;;-144.99;90.05;52594.84;5033544;28;19932;-73
2023/01/19 03:30:52;;;;;;;;;;;;;;;-144.99;90.81;52578.53;5025083;28;19947;-74
2023/01/19 03:33:24;;;;;;;;;;;;;;;-144.99;91.16;52582.63;5017391;28;19925;-73
2023/01/19 03:35:53;;;;;;;;;;;;;;;-144.99;90.60;52550.00;5037442;28;19914;-73
2023/01/19 03:38:22;;;;;;;;;;;;;;;-144.99;90.44;52578.53;5059968;28;19913;-73
2023/01/19 03:40:48;;;;;;;;;;;;;;;-144.99;89.98;52574.47;5049282;28;19925;-73
2023/01/19 03:43:16;;;;;;;;;;;;;;;-144.99;89.79;52598.94;5033608;28;20389;-74
2023/01/19 03:45:43;;;;;;;;;;;;;;;-144.99;89.95;52568.34;5039007;28;20306;-73
2023/01/19 03:48:11;;;;;;;;;;;;;;;-144.99;90.71;52586.69;5042156;28;19983;-74
2023/01/19 03:50:38;;;;;;;;;;;;;;;-144.99;90.91;52570.38;5043668;28;19936;-73
2023/01/19 03:53:09;;;;;;;;;;;;;;;-144.99;90.88;52619.31;5038406;28;19986;-73
2023/01/19 03:55:37;;;;;;;;;;;;;;;-144.99;90.69;52537.78;5039780;28;19980;-73
2023/01/19 03:58:04;;;;;;;;;;;;;;;-144.99;91.90;52574.47;5043501;28;20134;-73
2023/01/19 04:00:30;;;;;;;;;;;;;;;-144.99;91.82;52594.84;5028805;28;20160;-74
2023/01/19 04:02:57;;;;;;;;;;;;;;;-144.99;92.09;52598.94;5042943;28;19974;-73
2023/01/19 04:05:25;;;;;;;;;;;;;;;-144.99;91.76;52574.47;5032930;28;19929;-70
2023/01/19 04:07:52;;;;;;;;;;;;;;;-144.99;91.58;52570.38;5026094;28;19925;-71
2023/01/19 04:10:19;;;;;;;;;;;;;;;-144.99;91.77;52584.66;5029531;28;19964;-71
2023/01/19 04:12:45;;;;;;;;;;;;;;;-144.99;92.45;52562.25;5019587;28;19992;-71
2023/01/19 04:15:12;;;;;;;;;;;;;;;-144.99;92.42;52562.25;5032588;28;20394;-71
2023/01/19 04:17:39;;;;;;;;;;;;;;;-144.99;92.82;52586.69;5028457;28;19965;-71
2023/01/19 04:20:06;;;;;;;;;;;;;;;-144.99;92.84;52611.16;5040303;28;20488;-71
2023/01/19 04:22:34;;;;;;;;;;;;;;;-144.99;92.47;52541.84;5034482;28;20354;-71
2023/01/19 04:25:01;;;;;;;;;;;;;;;-144.99;92.36;52554.09;5028392;28;20469;-71
2023/01/19 04:27:28;;;;;;;;;;;;;;;-144.99;92.88;52556.13;5033244;28;19925;-71
2023/01/19 04:29:55;;;;;;;;;;;;;;;-144.99;92.89;52541.84;5029708;28;19937;-71
2023/01/19 04:32:22;;;;;;;;;;;;;;;-144.99;93.04;52562.25;5034070;28;20024;-73
2023/01/19 04:34:48;;;;;;;;;;;;;;;-144.99;94.17;52590.78;5033480;28;19925;-73
2023/01/19 04:37:15;;;;;;;;;;;;;;;-144.99;93.59;52590.78;5032039;28;20362;-73
2023/01/19 04:39:43;;;;;;;;;;;;;;;-144.99;93.22;52605.03;5027311;28;19929;-75
2023/01/19 04:42:09;;;;;;;;;;;;;;;-144.99;94.33;52570.38;5045779;28;19986;-73
2023/01/19 04:44:36;;;;;;;;;;;;;;;-144.99;94.39;52566.31;5038862;28;19926;-73
2023/01/19 04:47:02;;;;;;;;;;;;;;;-144.99;93.96;52554.09;5051176;28;19925;-75
2023/01/19 04:49:29;;;;;;;;;;;;;;;-144.99;93.68;52586.69;5053291;28;19929;-72
2023/01/19 04:51:55;;;;;;;;;;;;;;;-144.99;92.93;52566.31;5060191;28;19925;-73
2023/01/19 04:54:22;;;;;;;;;;;;;;;-144.99;92.79;52570.38;5052830;28;20424;-72
2023/01/19 04:56:50;;;;;;;;;;;;;;;-144.99;93.66;52550.00;5039357;28;20452;-72
2023/01/19 04:59:16;;;;;;;;;;;;;;;-144.99;94.67;52562.25;5027956;28;20520;-73
2023/01/19 05:01:43;;;;;;;;;;;;;;;-144.99;94.51;52594.84;5036627;28;20225;-74
2023/01/19 05:04:09;;;;;;;;;;;;;;;-144.99;94.27;52554.09;5031499;28;20402;-73
2023/01/19 05:06:36;;;;;;;;;;;;;;;-144.99;93.55;52566.31;5051758;28;19970;-74
2023/01/19 05:09:02;;;;;;;;;;;;;;;-144.99;94.20;52607.09;5034617;28;20448;-73
2023/01/19 05:11:29;;;;;;;;;;;;;;;-144.99;94.26;52584.66;5042256;28;19929;-72
2023/01/19 05:13:57;;;;;;;;;;;;;;;-144.99;94.23;52586.69;5034284;28;19925;-72
2023/01/19 05:16:24;;;;;;;;;;;;;;;-144.99;94.25;52554.09;5046610;28;19925;-70
2023/01/19 05:18:51;;;;;;;;;;;;;;;-144.99;94.46;52550.00;5039261;28;20436;-66
2023/01/19 05:21:17;;;;;;;;;;;;;;;-144.99;94.31;52562.25;5043065;28;20340;-66
2023/01/19 05:23:44;;;;;;;;;;;;;;;-144.99;94.05;52550.00;5036912;28;19991;-66
2023/01/19 05:26:10;;;;;;;;;;;;;;;-144.99;95.47;52570.38;5035707;28;19968;-66
2023/01/19 05:28:37;;;;;;;;;;;;;;;-144.99;95.54;52562.25;5047562;28;19913;-76
2023/01/19 05:31:05;;;;;;;;;;;;;;;-144.99;96.85;52598.94;5058784;28;19956;-75
2023/01/19 05:33:32;;;;;;;;;;;;;;;-144.99;95.97;52578.53;5060789;28;19913;-75
2023/01/19 05:35:58;;;;;;;;;;;;;;;-144.99;96.53;52574.47;5053807;28;19929;-80
2023/01/19 05:38:25;;;;;;;;;;;;;;;-144.99;96.96;52537.78;5066363;28;19940;-77
2023/01/19 05:40:56;;;;;;;;;;;;;;;-144.99;96.54;52547.97;5061459;28;19939;-78
2023/01/19 05:43:24;;;;;;;;;;;;;;;-144.99;97.30;52545.94;5057738;28;19910;-78
2023/01/19 05:45:50;;;;;;;;;;;;;;;-144.99;97.79;52545.94;5061764;28;19988;-78
2023/01/19 05:48:18;;;;;;;;;;;;;;;-144.99;97.01;52556.13;5061448;28;19917;-77
2023/01/19 05:50:45;;;;;;;;;;;;;;;-144.99;97.58;52537.78;5055373;28;19991;-77
2023/01/19 05:53:11;;;;;;;;;;;;;;;-144.99;97.90;52554.09;5064148;28;19925;-78
2023/01/19 05:55:38;;;;;;;;;;;;;;;-144.99;98.81;52598.94;5058818;28;19997;-77
2023/01/19 05:58:05;;;;;;;;;;;;;;;-144.99;99.25;52574.47;5054189;28;19932;-77
2023/01/19 06:00:31;;;;;;;;;;;;;;;-144.99;98.98;52525.56;5046984;28;19972;-75
2023/01/19 06:02:59;;;;;;;;;;;;;;;-144.99;99.12;52594.84;5050972;28;19925;-75
2023/01/19 06:05:27;;;;;;;;;;;;;;;-144.99;99.52;52558.16;5041256;28;20003;-75
2023/01/19 06:07:56;;;;;;;;;;;;;;;-144.99;99.03;52623.38;5041516;28;19964;-75
2023/01/19 06:10:22;;;;;;;;;;;;;;;-144.99;99.34;52619.31;5034716;28;19925;-75
2023/01/19 06:12:50;;;;;;;;;;;;;;;-144.99;98.87;52578.53;5033336;28;20366;-75
2023/01/19 06:15:17;;;;;;;;;;;;;;;-144.99;99.36;52566.31;5034375;28;19925;-76
2023/01/19 06:17:43;;;;;;;;;;;;;;;-144.99;99.96;52607.09;5039849;28;19925;-76
2023/01/19 06:20:12;;;;;;;;;;;;;;;-144.99;98.45;52570.38;5047640;28;19948;-76
2023/01/19 06:22:40;;;;;;;;;;;;;;;-144.99;99.12;52586.69;5055005;28;19919;-75
2023/01/19 06:25:07;;;;;;;;;;;;;;;-144.99;98.87;52578.53;5052607;28;19948;-77
2023/01/19 06:27:34;;;;;;;;;;;;;;;-144.99;99.07;52578.53;4710660;28;10000474;-78
2023/01/19 06:30:00;;;;;;;;;;;;;;;-144.99;97.80;52586.69;5049756;28;19940;-77
2023/01/19 06:32:27;;;;;;;;;;;;;;;-144.99;97.27;52525.56;5052275;28;20475;-78
2023/01/19 06:34:53;;;;;;;;;;;;;;;-144.99;97.99;52578.53;5053732;28;19932;-77
2023/01/19 06:37:20;;;;;;;;;;;;;;;-144.99;98.98;52568.34;5049114;28;20185;-78
2023/01/19 06:39:48;;;;;;;;;;;;;;;-144.99;99.31;52574.47;5026221;28;20007;-77
2023/01/19 06:42:15;;;;;;;;;;;;;;;-144.99;99.53;52562.25;5036404;28;19936;-78
2023/01/19 06:44:46;;;;;;;;;;;;;;;-144.99;99.53;52558.16;5034538;28;19929;-77
2023/01/19 06:47:12;;;;;;;;;;;;;;;-144.99;100.00;52558.16;5035634;28;19936;-76
2023/01/19 06:49:39;;;;;;;;;;;;;;;-144.99;99.80;52574.47;5036521;28;19932;-77
2023/01/19 06:52:05;;;;;;;;;;;;;;;-144.99;98.93;52566.31;5039999;28;19913;-78
2023/01/19 06:54:32;;;;;;;;;;;;;;;-144.99;99.40;52560.19;5059926;28;19953;-76
2023/01/19 06:57:00;;;;;;;;;;;;;;;-144.99;99.74;52570.38;5051737;28;19929;-77
2023/01/19 06:59:27;;;;;;;;;;;;;;;-144.99;99.16;52545.94;5031266;28;20954;-76
2023/01/19 07:01:54;;;;;;;;;;;;;;;-144.99;99.01;52541.84;5033472;28;19929;-76
2023/01/19 07:04:21;;;;;;;;;;;;;;;-144.99;98.08;52566.31;5033806;28;20032;-77
2023/01/19 07:06:48;;;;;;;;;;;;;;;-144.99;98.01;52541.84;5033278;28;19925;-77
2023/01/19 07:09:15;;;;;;;;;;;;;;;-144.99;100.00;52558.16;5033628;28;19991;-76
2023/01/19 07:11:42;;;;;;;;;;;;;;;-144.99;100.00;52550.00;5024078;28;20275;-76
2023/01/19 07:14:10;;;;;;;;;;;;;;;-144.99;100.00;52574.47;5035846;28;19986;-77
2023/01/19 07:16:37;;;;;;;;;;;;;;;-144.99;100.00;52562.25;5033628;28;20048;-77
2023/01/19 07:19:04;;;;;;;;;;;;;;;-144.99;100.00;52580.59;5037959;28;19925;-76
2023/01/19 07:21:30;;;;;;;;;;;;;;;-144.99;100.00;52576.50;5042379;28;19933;-77
2023/01/19 07:23:57;;;;;;;;;;;;;;;-144.99;99.07;52586.69;5033771;28;19968;-78
2023/01/19 07:26:24;;;;;;;;;;;;;;;-144.99;100.00;52545.94;5034208;28;19960;-77
2023/01/19 07:28:51;;;;;;;;;;;;;;;-144.99;100.00;52582.63;5031985;28;19929;-77
2023/01/19 07:31:19;;;;;;;;;;;;;;;-144.99;100.00;52574.47;5040457;28;19937;-76
2023/01/19 07:33:46;;;;;;;;;;;;;;;-144.99;100.00;52566.31;5039813;28;19968;-77
2023/01/19 07:36:13;;;;;;;;;;;;;;;-144.99;100.00;52611.16;5033490;28;19925;-76
2023/01/19 07:38:40;;;;;;;;;;;;;;;-144.99;100.00;52558.16;5033118;28;19975;-76
2023/01/19 07:41:07;;;;;;;;;;;;;;;-144.99;100.00;52533.69;5041463;28;19929;-76
2023/01/19 07:43:34;;;;;;;;;;;;;;;-144.99;99.77;52558.16;5033296;28;19925;-76
2023/01/19 07:46:02;;;;;;;;;;;;;;;-144.99;99.33;52558.16;5032660;28;19969;-76
2023/01/19 07:48:30;;;;;;;;;;;;;;;-144.99;98.52;52537.78;5029188;28;19957;-77
2023/01/19 07:50:59;;;;;;;;;;;;;;;-144.99;99.07;52562.25;5022623;28;19925;-77
2023/01/19 07:53:25;;;;;;;;;;;;;;;-144.99;100.00;52570.38;5034540;28;20348;-76
2023/01/19 07:55:55;;;;;;;;;;;;;;;-144.99;100.00;52541.84;5039180;28;20370;-76
2023/01/19 07:58:22;;;;;;;;;;;;;;;-144.99;100.00;52550.00;5038911;28;19933;-77
2023/01/19 08:00:49;;;;;;;;;;;;;;;-144.99;99.97;52550.00;5037342;28;19929;-77
2023/01/19 08:03:16;;;;;;;;;;;;;;;-144.99;100.00;52570.38;5045929;28;19935;-76
2023/01/19 08:05:44;;;;;;;;;;;;;;;-144.99;100.00;52541.84;5029702;28;20012;-77
2023/01/19 08:08:11;;;;;;;;;;;;;;;-144.99;99.67;52566.31;5030780;28;19940;-77
2023/01/19 08:10:38;;;;;;;;;;;;;;;-144.99;100.00;52525.56;5040307;28;19928;-77
2023/01/19 08:13:05;;;;;;;;;;;;;;;-144.99;99.62;52545.94;5038563;28;19925;-77
2023/01/19 08:15:31;;;;;;;;;;;;;;;-144.99;99.13;52525.56;5033852;28;19935;-77
2023/01/19 08:17:58;;;;;;;;;;;;;;;-144.99;99.43;52541.84;5035840;28;19929;-77
2023/01/19 08:20:25;;;;;;;;;;;;;;;-144.99;100.00;52541.84;5038830;28;20405;-77
2023/01/19 08:22:58;;;;;;;;;;;;;;;-144.99;100.00;52603.00;5041941;28;19930;-76
2023/01/19 08:25:25;;;;;;;;;;;;;;;-144.99;100.00;52541.84;5041954;28;19935;-77
2023/01/19 08:27:54;;;;;;;;;;;;;;;-144.99;100.00;52580.59;5037298;28;19932;-77
2023/01/19 08:30:20;;;;;;;;;;;;;;;-144.99;100.00;52554.09;5046080;28;19929;-77
2023/01/19 08:32:47;;;;;;;;;;;;;;;-144.99;100.00;52566.31;5045398;28;19929;-77
2023/01/19 08:35:14;;;;;;;;;;;;;;;-144.99;100.00;52566.31;5058646;28;19925;-77
2023/01/19 08:37:41;;;;;;;;;;;;;;;-144.99;100.00;52554.09;5049655;28;19952;-78
2023/01/19 08:40:10;;;;;;;;;;;;;;;-144.99;100.00;52550.00;5063328;28;19929;-77
2023/01/19 08:42:36;;;;;;;;;;;;;;;-144.99;100.00;52558.16;5060497;28;19929;-77
2023/01/19 08:45:03;;;;;;;;;;;;;;;-144.99;100.00;52578.53;5052707;28;20351;-77
2023/01/19 08:47:30;;;;;;;;;;;;;;;-144.99;100.00;52545.94;5051952;28;19956;-77
2023/01/19 08:49:56;;;;;;;;;;;;;;;-144.99;100.00;52570.38;5057851;28;19925;-76
2023/01/19 08:52:25;;;;;;;;;;;;;;;-144.99;100.00;52566.31;5062042;28;19916;-78
2023/01/19 08:54:52;;;;;;;;;;;;;;;-144.99;100.00;52568.34;5059556;28;19909;-77
2023/01/19 08:57:19;;;;;;;;;;;;;;;-144.99;100.00;52545.94;5057630;28;19939;-77
2023/01/19 08:59:47;;;;;;;;;;;;;;;-144.99;100.00;52570.38;5030495;28;19925;-77
2023/01/19 09:02:13;;;;;;;;;;;;;;;-144.99;100.00;52547.97;5042129;28;19983;-77
2023/01/19 09:04:40;;;;;;;;;;;;;;;-144.99;100.00;52554.09;5032306;28;20337;-77
2023/01/19 09:07:06;;;;;;;;;;;;;;;-144.99;100.00;52492.94;5035907;28;20311;-77
2023/01/19 09:09:36;;;;;;;;;;;;;;;-144.99;100.00;52574.47;5033283;28;19929;-77
2023/01/19 09:12:03;;;;;;;;;;;;;;;-144.99;100.00;52562.25;5045449;28;20026;-77
2023/01/19 09:14:31;;;;;;;;;;;;;;;-144.99;100.00;52525.56;5033943;28;20303;-75
2023/01/19 09:16:58;;;;;;;;;;;;;;;-144.99;100.00;52562.25;5025798;28;19952;-75
2023/01/19 09:19:25;;;;;;;;;;;;;;;-144.99;100.00;52574.47;5036940;28;19925;-75
2023/01/19 09:21:53;;;;;;;;;;;;;;;-144.99;100.00;52550.00;5047625;28;19929;-76
2023/01/19 09:24:19;;;;;;;;;;;;;;;-144.99;100.00;52554.09;5047856;28;19971;-76
2023/01/19 09:26:46;;;;;;;;;;;;;;;-144.99;100.00;52527.59;5037633;28;20371;-74
2023/01/19 09:29:13;;;;;;;;;;;;;;;-144.99;99.84;52533.69;5032452;28;19929;-76
2023/01/19 09:31:42;;;;;;;;;;;;;;;-144.99;100.00;52541.84;5042271;28;19947;-75
2023/01/19 09:34:09;;;;;;;;;;;;;;;-144.99;100.00;52539.81;5043067;28;20310;-75
2023/01/19 09:36:38;;;;;;;;;;;;;;;-144.99;100.00;52497.00;5035612;28;20333;-75
2023/01/19 09:39:04;;;;;;;;;;;;;;;-144.99;100.00;52552.03;5036415;28;19933;-75
2023/01/19 09:41:33;;;;;;;;;;;;;;;-144.99;100.00;52550.00;5028001;28;19925;-75
2023/01/19 09:44:00;;;;;;;;;;;;;;;-144.99;99.13;52562.25;5031296;28;19949;-76
2023/01/19 09:46:30;;;;;;;;;;;;;;;-144.99;99.13;52533.69;5029849;28;19929;-75
2023/01/19 09:49:03;;;;;;;;;;;;;;;-144.99;98.65;52519.44;5034607;28;19960;-75
2023/01/19 09:51:33;;;;;;;;;;;;;;;-144.99;99.20;52537.78;5035623;28;19925;-75
2023/01/19 09:54:03;;;;;;;;;;;;;;;-144.99;99.34;52554.09;5035000;28;19925;-75
2023/01/19 09:56:30;;;;;;;;;;;;;;;-144.99;98.09;52525.56;5028415;28;19929;-75
2023/01/19 09:58:58;;;;;;;;;;;;;;;-144.99;97.29;52529.63;5038629;28;19925;-75
2023/01/19 10:01:39;;;;;;;;;;;;;;;-144.99;97.64;52513.31;5035879;28;20329;-75
2023/01/19 10:04:17;;;;;;;;;;;;;;;-144.99;98.53;52547.97;5027485;28;19929;-75
2023/01/19 10:06:44;;;;;;;;;;;;;;;-144.99;97.46;52525.56;5040946;28;19929;-75
2023/01/19 10:09:15;;;;;;;;;;;;;;;-144.99;96.68;52550.00;5039477;28;19929;-75
2023/01/19 10:11:45;;;;;;;;;;;;;;;-144.99;97.08;52523.50;5033681;28;19929;-75
2023/01/19 10:14:19;;;;;;;;;;;;;;;-144.99;96.91;52525.56;5048946;28;19929;-75
2023/01/19 10:16:52;;;;;;;;;;;;;;;-144.99;95.84;52533.69;5021140;28;19925;-75
2023/01/19 10:19:24;;;;;;;;;;;;;;;-144.99;96.10;52513.31;5037867;28;19995;-75
2023/01/19 10:21:51;;;;;;;;;;;;;;;-144.99;96.63;52533.69;5041197;28;19925;-75
2023/01/19 10:24:21;;;;;;;;;;;;;;;-144.99;96.49;52547.97;5049800;28;19924;-75
2023/01/19 10:26:51;;;;;;;;;;;;;;;-144.99;97.32;52578.53;5037357;28;19995;-75
2023/01/19 10:29:21;;;;;;;;;;;;;;;-144.99;96.91;52529.63;5039736;28;20378;-75
2023/01/19 10:31:48;;;;;;;;;;;;;;;-144.99;96.42;52570.38;5032429;28;19925;-75
2023/01/19 10:34:17;;;;;;;;;;;;;;;-144.99;96.57;52562.25;5028198;28;19930;-76
2023/01/19 10:36:46;;;;;;;;;;;;;;;-144.99;96.70;52521.47;5026861;28;19929;-76
2023/01/19 10:39:15;;;;;;;;;;;;;;;-144.99;96.47;52517.41;5019842;28;19929;-75
2023/01/19 10:41:42;;;;;;;;;;;;;;;-144.99;96.47;52545.94;5041575;28;19933;-75
2023/01/19 10:44:10;;;;;;;;;;;;;;;-144.99;95.97;52541.84;5041832;28;19979;-75
2023/01/19 10:46:42;;;;;;;;;;;;;;;-144.99;97.04;52578.53;5035459;28;20366;-75
2023/01/19 10:49:21;;;;;;;;;;;;;;;-144.99;96.45;52533.69;5023005;28;19932;-75
2023/01/19 10:51:49;;;;;;;;;;;;;;;-144.99;97.02;52541.84;5037215;28;20397;-75
2023/01/19 10:54:16;;;;;;;;;;;;;;;-144.99;96.53;52562.25;5034508;28;19972;-75
2023/01/19 10:56:43;;;;;;;;;;;;;;;-144.99;96.97;52523.50;5052522;28;19921;-75
2023/01/19 10:59:29;;;;;;;;;;;;;;;-144.99;96.85;52550.00;5043853;28;19948;-76
2023/01/19 11:02:02;;;;;;;;;;;;;;;-144.99;97.32;52533.69;5027660;28;19978;-75
2023/01/19 11:04:29;;;;;;;;;;;;;;;-144.99;97.31;52554.09;5032815;28;19977;-75
2023/01/19 11:07:12;;;;;;;;;;;;;;;-144.99;96.86;52554.09;5059463;28;19945;-75
2023/01/19 11:09:39;;;;;;;;;;;;;;;-144.99;96.23;52568.34;5036553;28;19933;-75
2023/01/19 11:12:05;;;;;;;;;;;;;;;-144.99;96.87;52521.47;5036276;28;20341;-75
2023/01/19 11:14:32;;;;;;;;;;;;;;;-144.99;96.75;52570.38;5037826;28;20306;-75
2023/01/19 11:16:59;;;;;;;;;;;;;;;-144.99;96.42;52525.56;5044451;28;19925;-74
2023/01/19 11:19:27;;;;;;;;;;;;;;;-144.99;95.62;52517.41;5043354;28;20298;-74
2023/01/19 11:22:07;;;;;;;;;;;;;;;-144.99;96.24;52552.03;5032004;28;19983;-75
2023/01/19 11:24:36;;;;;;;;;;;;;;;-144.99;95.29;52509.25;5021389;28;19960;-74
2023/01/19 11:27:03;;;;;;;;;;;;;;;-144.99;95.39;52547.97;5024444;28;19929;-74
2023/01/19 11:29:30;;;;;;;;;;;;;;;-144.99;95.30;52513.31;5027653;28;19930;-75
2023/01/19 11:32:09;;;;;;;;;;;;;;;-144.99;95.09;52509.25;5039420;28;19929;-73
2023/01/19 11:34:37;;;;;;;;;;;;;;;-144.99;94.47;52521.47;5032457;28;20398;-75
2023/01/19 11:37:04;;;;;;;;;;;;;;;-144.99;94.74;52521.47;5035596;28;19925;-74
2023/01/19 11:39:32;;;;;;;;;;;;;;;-144.99;94.39;52490.91;5019830;28;20149;-74
2023/01/19 11:42:01;;;;;;;;;;;;;;;-144.99;93.28;52539.81;5038306;28;19929;-74
2023/01/19 11:44:30;;;;;;;;;;;;;;;-144.99;94.03;52525.56;5051913;28;19921;-74
2023/01/19 11:46:58;;;;;;;;;;;;;;;-144.99;93.94;52525.56;5057415;28;19982;-74
2023/01/19 11:49:29;;;;;;;;;;;;;;;-144.99;93.82;52566.31;5063468;28;19955;-74
2023/01/19 11:51:58;;;;;;;;;;;;;;;-144.99;94.50;52513.31;5052859;28;20436;-75
2023/01/19 11:54:28;;;;;;;;;;;;;;;-144.99;95.51;52499.06;5053430;28;19925;-74
2023/01/19 11:56:56;;;;;;;;;;;;;;;-144.99;96.61;52525.56;5049225;28;19925;-74
2023/01/19 11:59:24;;;;;;;;;;;;;;;-144.99;96.29;52541.84;5051197;28;19924;-75
2023/01/19 12:01:55;;;;;;;;;;;;;;;-144.99;96.73;52533.69;5053269;28;19952;-74
2023/01/19 12:04:26;;;;;;;;;;;;;;;-144.99;96.05;52598.94;5062649;28;20375;-74
2023/01/19 12:06:53;;;;;;;;;;;;;;;-144.99;95.69;52562.25;5052691;28;19932;-74
2023/01/19 12:09:23;;;;;;;;;;;;;;;-144.99;94.84;52539.81;5033192;28;19925;-74
2023/01/19 12:11:53;;;;;;;;;;;;;;;-144.99;94.24;52537.78;5032779;28;19980;-74
2023/01/19 12:14:25;;;;;;;;;;;;;;;-144.99;96.35;52558.16;5032305;28;19925;-74
2023/01/19 12:16:55;;;;;;;;;;;;;;;-144.99;96.57;52582.63;5036699;28;19929;-74
2023/01/19 12:19:25;;;;;;;;;;;;;;;-144.99;96.34;52525.56;5042723;28;19940;-74
2023/01/19 12:21:52;;;;;;;;;;;;;;;-144.99;95.72;52517.41;5027945;28;19929;-74
2023/01/19 12:24:23;;;;;;;;;;;;;;;-144.99;95.89;52550.00;5049216;28;19913;-74
2023/01/19 12:26:53;;;;;;;;;;;;;;;-144.99;95.48;52533.69;5056566;28;19932;-75
2023/01/19 12:29:21;;;;;;;;;;;;;;;-144.99;94.90;52541.84;5035253;28;20347;-75
2023/01/19 12:32:02;;;;;;;;;;;;;;;-144.99;96.56;52570.38;5038477;28;20356;-75
2023/01/19 12:34:39;;;;;;;;;;;;;;;-144.99;97.43;52513.31;5034737;28;19929;-75
2023/01/19 12:37:07;;;;;;;;;;;;;;;-144.99;99.62;52552.03;5035244;28;20318;-75
2023/01/19 12:39:34;;;;;;;;;;;;;;;-144.99;100.00;52560.19;5038197;28;19971;-75
2023/01/19 12:42:07;;;;;;;;;;;;;;;-144.99;99.54;52574.47;5036835;28;20023;-75